Terminal Aerodrome Forecast
Issued by NWS

Home | Current Version | Previous Version | Text Only | Print | Product List | Glossary Off
Versions: 1 2 3 4 5 6 7 8 9 10 11 12 13 14 15

000
FTUS41 KCLE 252300
TAFFDY
TAF
KFDY 252320Z 2600/2624 24010KT P6SM SCT018 BKN250
     FM260100 24005KT P6SM SCT020 OVC045
     FM260900 34004KT 5SM -RA BR OVC025
      TEMPO 2609/2611 3SM -RA BR OVC012
     FM261100 36006KT 2SM -RA BR OVC008
     FM261700 30008KT 6SM -RASN BR OVC015
     FM261900 30010KT P6SM OVC025
     FM262100 28010KT P6SM BKN045=

USA.gov is the U.S. government's official web portal to all federal, state and local government web resources and services.